Time;durP1;ratioP1;P1;durP2;ratioP2;P2;SDS_P1;SDS_P2;PMS_P1;PMS_P2;Temp;Humidity;BMP_temperature;BMP_pressure;BME280_temperature;BME280_humidity;BME280_pressure;Samples;Min_cycle;Max_cycle;Signal;HPM_P1;HPM_P2
2022/12/06 00:01:18;;;;;;;30.90;20.40;;;19.20;53.70;;;;;;5032169;28;20108;-75
2022/12/06 00:03:46;;;;;;;29.23;20.30;;;19.20;53.80;;;;;;5031396;28;20034;-75
2022/12/06 00:06:16;;;;;;;29.35;20.38;;;19.20;53.90;;;;;;5032419;28;20029;-75
2022/12/06 00:08:42;;;;;;;26.50;19.98;;;19.20;54.00;;;;;;5032343;28;20029;-75
2022/12/06 00:11:11;;;;;;;30.15;19.95;;;19.20;54.20;;;;;;5030821;28;20036;-75
2022/12/06 00:13:38;;;;;;;28.20;18.52;;;19.20;54.20;;;;;;5032306;28;20049;-75
2022/12/06 00:16:07;;;;;;;26.73;19.27;;;19.20;54.10;;;;;;5032140;28;20034;-75
2022/12/06 00:18:35;;;;;;;26.80;18.55;;;19.20;54.30;;;;;;5032261;28;20036;-75
2022/12/06 00:21:23;;;;;;;30.05;19.05;;;19.20;54.40;;;;;;5031871;28;20477;-75
2022/12/06 00:23:51;;;;;;;27.60;18.85;;;19.20;54.30;;;;;;5030920;28;20524;-75
2022/12/06 00:26:18;;;;;;;27.90;18.60;;;19.20;54.30;;;;;;5032046;28;20029;-75
2022/12/06 00:28:44;;;;;;;28.23;18.75;;;19.20;54.30;;;;;;5025731;28;20440;-75
2022/12/06 00:31:14;;;;;;;30.63;18.00;;;19.20;54.80;;;;;;5029543;28;20527;-75
2022/12/06 00:33:40;;;;;;;26.40;15.93;;;19.20;56.00;;;;;;5029087;28;20018;-77
2022/12/06 00:36:10;;;;;;;21.05;11.75;;;19.10;54.40;;;;;;5030821;28;20022;-78
2022/12/06 00:38:36;;;;;;;;;;;18.90;47.90;;;;;;5027840;28;20025;-76
2022/12/06 00:41:07;;;;;;;26.70;19.33;;;18.60;46.00;;;;;;5028470;28;19920;-82
2022/12/06 00:43:34;;;;;;;25.77;17.80;;;18.60;46.70;;;;;;5031009;28;20492;-75
2022/12/06 00:46:00;;;;;;;24.70;16.92;;;18.60;48.70;;;;;;5034020;28;20108;-75
2022/12/06 00:48:26;;;;;;;26.02;16.92;;;18.70;50.70;;;;;;5007921;28;20033;-74
2022/12/06 00:50:52;;;;;;;23.25;16.08;;;18.80;49.90;;;;;;5027287;28;20045;-75
2022/12/06 00:53:18;;;;;;;23.75;16.15;;;18.80;50.50;;;;;;5028067;28;20053;-76
2022/12/06 00:55:45;;;;;;;23.55;15.80;;;18.90;50.80;;;;;;5027108;28;20215;-75
2022/12/06 00:58:13;;;;;;;22.30;15.73;;;18.90;50.90;;;;;;5027068;28;20041;-76
2022/12/06 01:00:38;;;;;;;22.08;15.95;;;19.00;51.20;;;;;;5025967;28;20021;-75
2022/12/06 01:03:05;;;;;;;21.88;14.82;;;19.00;51.40;;;;;;5027203;28;20155;-76
2022/12/06 01:05:32;;;;;;;20.60;14.60;;;19.10;51.60;;;;;;5026864;28;20104;-75
2022/12/06 01:07:57;;;;;;;25.30;15.23;;;19.10;51.70;;;;;;5029050;28;20022;-75
2022/12/06 01:10:24;;;;;;;20.05;13.80;;;19.10;51.70;;;;;;5028988;28;20026;-75
2022/12/06 01:12:50;;;;;;;21.30;14.85;;;19.10;52.00;;;;;;5029179;28;20108;-76
2022/12/06 01:15:15;;;;;;;22.80;13.75;;;19.20;52.20;;;;;;5028918;28;20033;-75
2022/12/06 01:17:41;;;;;;;21.92;14.98;;;19.20;52.20;;;;;;5027920;28;20033;-76
2022/12/06 01:20:08;;;;;;;19.45;14.00;;;19.20;52.50;;;;;;5029123;28;20485;-75
2022/12/06 01:22:34;;;;;;;22.58;14.18;;;19.20;52.20;;;;;;5027674;28;20060;-76
2022/12/06 01:24:59;;;;;;;20.25;13.98;;;19.20;52.60;;;;;;5029052;28;20111;-75
2022/12/06 01:27:25;;;;;;;20.02;14.20;;;19.30;52.80;;;;;;5027904;28;20485;-75
2022/12/06 01:29:51;;;;;;;21.88;13.85;;;19.30;52.70;;;;;;5027408;28;20025;-75
2022/12/06 01:32:17;;;;;;;21.05;12.50;;;19.30;52.90;;;;;;5028689;28;20033;-75
2022/12/06 01:34:44;;;;;;;22.70;12.52;;;19.30;52.70;;;;;;5029071;28;20065;-76
2022/12/06 01:37:10;;;;;;;18.38;12.40;;;19.20;52.80;;;;;;5028938;28;20029;-76
2022/12/06 01:39:36;;;;;;;20.83;13.45;;;19.20;53.00;;;;;;5028690;28;20032;-76
2022/12/06 01:42:02;;;;;;;20.45;13.43;;;19.20;53.10;;;;;;5026775;28;20107;-76
2022/12/06 01:44:37;;;;;;;20.48;12.90;;;19.20;53.50;;;;;;5027352;28;20025;-73
2022/12/06 01:47:03;;;;;;;19.02;13.13;;;19.20;53.40;;;;;;5023019;28;20032;-75
2022/12/06 01:49:33;;;;;;;34.55;25.10;;;19.10;49.30;;;;;;5023324;28;20037;-75
2022/12/06 01:52:01;;;;;;;;;;;18.80;45.50;;;;;;5026963;28;20421;-76
2022/12/06 01:54:28;;;;;;;35.78;19.98;;;18.80;48.20;;;;;;5029024;28;19995;-77
2022/12/06 01:57:09;;;;;;;26.20;17.20;;;18.80;48.30;;;;;;5066037;28;20041;-77
2022/12/06 01:59:35;;;;;;;33.78;17.15;;;18.90;49.50;;;;;;5069415;28;20043;-77
2022/12/06 02:02:01;;;;;;;24.25;16.25;;;18.90;50.00;;;;;;5068974;28;20028;-76
2022/12/06 02:04:29;;;;;;;25.00;17.25;;;18.90;50.30;;;;;;5070472;28;20469;-77
2022/12/06 02:06:58;;;;;;;25.50;16.50;;;18.90;50.50;;;;;;5070734;28;20033;-77
2022/12/06 02:09:27;;;;;;;23.38;15.43;;;19.00;50.60;;;;;;5086123;28;20388;-77
2022/12/06 02:11:52;;;;;;;26.05;16.52;;;19.00;50.70;;;;;;5072025;28;20071;-76
2022/12/06 02:14:23;;;;;;;24.13;14.70;;;19.00;50.80;;;;;;5083678;28;20024;-76
2022/12/06 02:17:00;;;;;;;25.50;15.45;;;19.10;51.00;;;;;;5088688;28;20041;-77
2022/12/06 02:19:52;;;;;;;24.13;15.07;;;19.10;51.00;;;;;;5088619;28;20043;-77
2022/12/06 02:22:46;;;;;;;23.65;14.75;;;19.10;51.40;;;;;;5083582;28;20037;-77
2022/12/06 02:25:37;;;;;;;20.98;14.95;;;19.10;51.40;;;;;;5083287;28;20039;-77
2022/12/06 02:28:12;;;;;;;26.20;15.25;;;19.10;51.50;;;;;;5080722;28;20525;-76
2022/12/06 02:30:47;;;;;;;20.80;14.32;;;19.20;51.60;;;;;;5079379;28;20033;-76
2022/12/06 02:33:48;;;;;;;21.42;14.23;;;19.10;51.60;;;;;;5080695;28;20040;-77
2022/12/06 02:36:25;;;;;;;20.73;14.13;;;19.10;51.80;;;;;;5075648;28;20488;-77
2022/12/06 02:38:56;;;;;;;21.55;14.43;;;19.20;51.70;;;;;;5074113;28;20059;-77
2022/12/06 02:41:37;;;;;;;21.25;15.05;;;19.20;51.80;;;;;;5072005;28;20506;-77
2022/12/06 02:44:07;;;;;;;20.35;14.13;;;19.10;51.60;;;;;;5072418;28;20090;-77
2022/12/06 02:46:37;;;;;;;21.45;14.00;;;19.20;52.30;;;;;;5072294;28;20054;-77
2022/12/06 02:49:05;;;;;;;23.48;14.82;;;19.20;52.40;;;;;;5072261;28;20048;-77
2022/12/06 02:51:34;;;;;;;20.83;13.65;;;19.10;52.40;;;;;;5071929;28;20020;-77
2022/12/06 02:54:04;;;;;;;18.15;12.70;;;19.20;52.50;;;;;;5072147;28;20498;-77
2022/12/06 02:56:31;;;;;;;18.85;13.15;;;19.20;52.60;;;;;;5070912;28;20036;-77
2022/12/06 02:59:00;;;;;;;20.27;13.00;;;19.20;52.60;;;;;;5072443;28;20116;-78
2022/12/06 03:01:30;;;;;;;20.07;13.53;;;19.10;52.40;;;;;;5071287;28;20039;-77
2022/12/06 03:04:14;;;;;;;;;;;19.10;52.60;;;;;;5070685;28;20032;-77
2022/12/06 03:06:47;;;;;;;18.90;12.45;;;19.20;52.90;;;;;;5071720;28;19916;-77
2022/12/06 03:09:35;;;;;;;21.20;13.65;;;19.20;53.10;;;;;;5087445;28;20086;-77
2022/12/06 03:12:06;;;;;;;18.63;12.80;;;19.20;53.10;;;;;;5071606;28;20036;-78
2022/12/06 03:14:44;;;;;;;21.42;12.85;;;19.20;53.30;;;;;;5070386;28;20036;-78
2022/12/06 03:17:26;;;;;;;22.20;12.35;;;19.20;53.40;;;;;;5070704;28;20495;-77
2022/12/06 03:20:03;;;;;;;18.75;12.70;;;19.20;53.50;;;;;;5086999;28;20033;-77
2022/12/06 03:22:34;;;;;;;18.88;12.30;;;19.20;53.60;;;;;;5071054;28;20032;-77
2022/12/06 03:25:01;;;;;;;17.83;12.02;;;19.10;53.50;;;;;;5070047;28;20131;-77
2022/12/06 03:27:30;;;;;;;;;;;19.20;53.60;;;;;;5070529;28;20032;-76
2022/12/06 03:30:00;;;;;;;18.63;11.73;;;19.10;53.70;;;;;;5070887;28;19978;-77
2022/12/06 03:32:31;;;;;;;19.83;11.65;;;19.20;53.70;;;;;;5071074;28;20021;-78
2022/12/06 03:35:00;;;;;;;17.20;11.82;;;19.20;53.90;;;;;;5070940;28;20036;-78
2022/12/06 03:37:48;;;;;;;19.98;12.02;;;19.20;53.80;;;;;;5071290;28;20086;-78
2022/12/06 03:40:17;;;;;;;22.60;12.35;;;19.20;53.90;;;;;;5070839;28;20024;-77
2022/12/06 03:42:42;;;;;;;21.45;11.90;;;19.20;54.00;;;;;;5069835;28;20059;-76
2022/12/06 03:45:12;;;;;;;17.02;11.43;;;19.20;54.00;;;;;;5070440;28;20504;-76
2022/12/06 03:48:02;;;;;;;19.60;11.98;;;19.20;54.30;;;;;;5069946;28;20032;-77
2022/12/06 03:50:57;;;;;;;16.65;11.13;;;19.20;54.00;;;;;;5070512;28;20067;-75
2022/12/06 03:53:23;;;;;;;19.83;11.98;;;19.20;54.50;;;;;;5071702;28;20063;-76
2022/12/06 03:55:48;;;;;;;19.25;11.73;;;19.20;54.20;;;;;;5069640;28;20064;-76
2022/12/06 03:58:17;;;;;;;18.13;11.15;;;19.30;54.30;;;;;;5072671;28;20028;-76
2022/12/06 04:00:44;;;;;;;17.75;10.90;;;19.20;54.40;;;;;;5055228;28;20036;-77
2022/12/06 04:03:10;;;;;;;17.38;10.85;;;19.20;54.50;;;;;;5056073;28;20079;-77
2022/12/06 04:05:36;;;;;;;16.48;10.68;;;19.20;54.60;;;;;;5069684;28;20020;-78
2022/12/06 04:08:02;;;;;;;17.02;11.55;;;19.20;54.40;;;;;;5073624;28;20446;-78
2022/12/06 04:10:30;;;;;;;17.00;11.18;;;19.20;54.60;;;;;;5072891;28;20036;-77
2022/12/06 04:12:59;;;;;;;18.75;11.88;;;19.20;54.70;;;;;;5075307;28;20032;-78
2022/12/06 04:15:37;;;;;;;17.15;11.75;;;19.20;54.70;;;;;;5074660;28;20040;-76
2022/12/06 04:18:14;;;;;;;20.85;10.65;;;19.20;54.70;;;;;;5071993;28;20067;-77
2022/12/06 04:23:49;;;;;;;16.95;10.27;;;19.20;54.90;;;;;;5072257;28;20036;-77
2022/12/06 04:26:20;;;;;;;16.77;10.65;;;19.20;55.00;;;;;;5071922;28;20029;-77
2022/12/06 04:39:45;;;;;;;16.38;10.15;;;19.20;54.80;;;;;;5068970;28;20032;-77
2022/12/06 04:44:56;;;;;;;15.32;9.80;;;19.20;54.70;;;;;;5069911;28;20031;-77
2022/12/06 04:47:22;;;;;;;15.48;10.35;;;19.20;54.80;;;;;;5070090;28;20264;-77
2022/12/06 04:49:48;;;;;;;24.60;9.73;;;19.20;54.80;;;;;;5068553;28;20032;-78
2022/12/06 04:52:17;;;;;;;16.15;9.73;;;19.20;54.80;;;;;;5069655;28;20024;-77
2022/12/06 04:54:43;;;;;;;16.67;10.55;;;19.20;54.70;;;;;;5068738;28;20170;-77
2022/12/06 04:57:14;;;;;;;14.65;9.90;;;19.20;55.00;;;;;;5070989;28;20056;-78
2022/12/06 04:59:41;;;;;;;15.30;9.77;;;19.20;54.90;;;;;;5052271;28;20131;-78
2022/12/06 05:02:10;;;;;;;18.13;10.18;;;19.20;55.00;;;;;;5068831;28;20031;-78
2022/12/06 05:04:36;;;;;;;14.77;9.20;;;19.20;55.00;;;;;;5063042;28;20436;-78
2022/12/06 05:07:03;;;;;;;15.88;10.25;;;19.20;55.00;;;;;;5032973;28;20020;-78
2022/12/06 05:09:29;;;;;;;14.15;9.50;;;19.20;54.90;;;;;;5069483;28;20500;-78
2022/12/06 05:11:54;;;;;;;18.90;9.68;;;19.20;55.00;;;;;;5053551;28;20556;-78
2022/12/06 05:14:20;;;;;;;16.63;9.57;;;19.20;55.00;;;;;;5070834;28;20140;-77
2022/12/06 05:16:46;;;;;;;14.18;9.35;;;19.20;55.00;;;;;;5072772;28;20032;-77
2022/12/06 05:19:13;;;;;;;24.52;9.30;;;19.20;55.40;;;;;;5053169;28;20484;-77
2022/12/06 05:21:39;;;;;;;13.32;8.95;;;19.30;55.60;;;;;;5070592;28;20029;-77
2022/12/06 05:24:05;;;;;;;15.38;9.38;;;19.30;55.40;;;;;;5070144;28;20031;-77
2022/12/06 05:26:31;;;;;;;18.02;9.70;;;19.30;55.50;;;;;;5070310;28;20082;-77
2022/12/06 05:28:57;;;;;;;13.52;9.50;;;19.30;55.50;;;;;;5070347;28;20033;-76
2022/12/06 05:31:24;;;;;;;15.90;9.10;;;19.20;55.60;;;;;;5069057;28;20081;-77
2022/12/06 05:33:51;;;;;;;14.70;8.93;;;19.30;55.60;;;;;;5070006;28;20032;-77
2022/12/06 05:36:22;;;;;;;16.98;9.68;;;19.20;56.10;;;;;;5069661;28;20480;-77
2022/12/06 05:38:49;;;;;;;15.57;9.00;;;19.20;55.60;;;;;;5069792;28;20457;-77
2022/12/06 05:41:15;;;;;;;14.98;8.98;;;19.20;55.70;;;;;;5067680;28;20021;-77
2022/12/06 05:43:41;;;;;;;15.93;9.32;;;19.20;55.80;;;;;;5067620;28;20166;-76
2022/12/06 05:46:07;;;;;;;12.95;8.65;;;19.20;55.60;;;;;;5068334;28;20119;-77
2022/12/06 05:48:34;;;;;;;12.70;8.27;;;19.20;55.80;;;;;;5073554;28;20024;-78
2022/12/06 05:51:00;;;;;;;14.50;9.02;;;19.20;55.80;;;;;;5072602;28;20457;-77
2022/12/06 05:53:25;;;;;;;12.30;7.90;;;19.20;55.70;;;;;;5073600;28;20024;-78
2022/12/06 05:55:51;;;;;;;14.60;9.07;;;19.20;55.70;;;;;;5072252;28;20028;-75
2022/12/06 05:58:18;;;;;;;15.68;8.88;;;19.20;55.80;;;;;;5073170;28;20037;-77
2022/12/06 06:00:48;;;;;;;15.20;9.10;;;19.20;55.80;;;;;;5072297;28;20107;-76
2022/12/06 06:03:16;;;;;;;14.30;9.18;;;19.20;55.60;;;;;;5055403;28;20043;-77
2022/12/06 06:06:08;;;;;;;13.50;8.10;;;19.20;56.00;;;;;;5056717;28;20028;-76
2022/12/06 06:08:34;;;;;;;13.30;8.50;;;19.10;56.10;;;;;;5074966;28;20033;-77
2022/12/06 06:11:00;;;;;;;14.18;8.73;;;19.10;56.20;;;;;;5071361;28;20028;-77
2022/12/06 06:13:26;;;;;;;16.33;9.48;;;19.10;56.20;;;;;;5073265;28;20383;-77
2022/12/06 06:15:52;;;;;;;13.35;8.48;;;19.10;56.70;;;;;;5071554;28;20039;-78
2022/12/06 06:18:18;;;;;;;15.38;8.80;;;19.10;56.30;;;;;;5073017;28;20036;-77
2022/12/06 06:20:49;;;;;;;12.52;8.15;;;19.10;56.40;;;;;;5072103;28;20484;-76
2022/12/06 06:23:14;;;;;;;13.07;8.35;;;19.10;56.40;;;;;;5072633;28;20544;-77
2022/12/06 06:25:40;;;;;;;13.13;7.80;;;19.10;56.40;;;;;;5072441;28;20107;-76
2022/12/06 06:28:06;;;;;;;13.45;8.00;;;19.10;56.20;;;;;;5072864;28;20063;-77
2022/12/06 06:30:35;;;;;;;12.90;8.18;;;19.10;56.20;;;;;;5071222;28;20024;-76
2022/12/06 06:33:01;;;;;;;12.27;7.60;;;19.10;56.20;;;;;;5073057;28;20376;-77
2022/12/06 06:35:26;;;;;;;13.88;8.50;;;19.10;56.40;;;;;;5072807;28;20032;-76
2022/12/06 06:37:52;;;;;;;13.25;7.90;;;19.10;56.40;;;;;;5072559;28;20021;-77
2022/12/06 06:40:18;;;;;;;14.13;8.18;;;19.20;56.50;;;;;;5072223;28;20473;-77
2022/12/06 06:42:44;;;;;;;13.45;8.48;;;19.20;56.40;;;;;;5071262;28;20036;-78
2022/12/06 06:45:10;;;;;;;13.20;7.78;;;19.20;56.40;;;;;;5072857;28;20488;-77
2022/12/06 06:47:36;;;;;;;13.80;7.63;;;19.20;56.50;;;;;;5054978;28;20036;-77
2022/12/06 06:50:02;;;;;;;12.57;7.75;;;19.20;56.30;;;;;;5072816;28;20107;-78
2022/12/06 06:52:28;;;;;;;14.10;7.88;;;19.30;56.50;;;;;;5071968;28;20029;-77
2022/12/06 06:54:54;;;;;;;12.20;7.72;;;19.30;56.40;;;;;;5072298;28;20035;-77
2022/12/06 06:57:20;;;;;;;12.13;7.93;;;19.20;56.40;;;;;;5071237;28;20032;-77
2022/12/06 06:59:45;;;;;;;14.95;8.07;;;19.20;56.40;;;;;;5071099;28;20422;-77
2022/12/06 07:02:13;;;;;;;13.98;7.28;;;19.20;56.40;;;;;;5070825;28;20397;-77
2022/12/06 07:04:39;;;;;;;11.40;7.28;;;19.20;56.40;;;;;;5072074;28;20017;-77
2022/12/06 07:07:05;;;;;;;13.90;7.97;;;19.20;56.50;;;;;;5071886;28;20158;-77
2022/12/06 07:09:31;;;;;;;13.23;7.28;;;19.20;56.50;;;;;;5071981;28;20103;-77
2022/12/06 07:11:57;;;;;;;11.68;7.28;;;19.20;56.40;;;;;;5071631;28;20029;-77
2022/12/06 07:14:22;;;;;;;11.75;7.20;;;19.20;56.50;;;;;;5070626;28;20171;-77
2022/12/06 07:16:48;;;;;;;12.35;7.50;;;19.20;56.80;;;;;;5053966;28;20133;-77
2022/12/06 07:19:14;;;;;;;12.73;7.90;;;19.20;56.80;;;;;;5071968;28;20488;-77
2022/12/06 07:21:40;;;;;;;12.18;7.70;;;19.20;56.70;;;;;;5071322;28;20112;-77
2022/12/06 07:24:06;;;;;;;11.02;7.38;;;19.20;56.60;;;;;;5070367;28;20563;-77
2022/12/06 07:26:33;;;;;;;12.80;8.00;;;19.20;56.50;;;;;;5070509;28;20028;-78
2022/12/06 07:29:01;;;;;;;11.90;6.80;;;19.20;56.40;;;;;;5071636;28;20123;-76
2022/12/06 07:31:29;;;;;;;11.57;7.03;;;19.20;56.70;;;;;;5037481;28;20096;-77
2022/12/06 07:33:57;;;;;;;14.50;7.38;;;19.20;56.40;;;;;;5070734;28;20400;-77
2022/12/06 07:36:24;;;;;;;11.75;7.05;;;19.20;56.70;;;;;;5070149;28;20105;-77
2022/12/06 07:38:52;;;;;;;12.55;7.53;;;19.20;56.70;;;;;;5070507;28;20459;-77
2022/12/06 07:46:58;;;;;;;11.25;6.97;;;19.10;56.60;;;;;;5071003;28;20037;-77
2022/12/06 07:49:24;;;;;;;13.43;7.22;;;19.10;56.80;;;;;;5071359;28;20111;-78
2022/12/06 07:51:52;;;;;;;9.00;6.30;;;19.20;56.50;;;;;;5071023;28;20096;-78
2022/12/06 07:54:17;;;;;;;13.75;6.53;;;19.20;56.40;;;;;;5071352;28;20056;-77
2022/12/06 07:56:43;;;;;;;12.45;7.20;;;19.20;56.10;;;;;;5070906;28;20128;-78
2022/12/06 07:59:09;;;;;;;12.57;7.10;;;19.20;56.20;;;;;;5053728;28;20055;-78
2022/12/06 08:01:35;;;;;;;11.43;7.18;;;19.20;56.40;;;;;;5067861;28;20031;-78
2022/12/06 08:04:03;;;;;;;10.00;7.00;;;19.20;56.50;;;;;;5062976;28;20028;-78
2022/12/06 08:06:32;;;;;;;15.15;6.80;;;19.20;56.40;;;;;;5067680;28;20077;-77
2022/12/06 08:08:59;;;;;;;10.63;6.55;;;19.20;56.40;;;;;;5070299;28;20036;-77
2022/12/06 08:11:24;;;;;;;12.07;6.85;;;19.30;56.50;;;;;;5069469;28;20040;-77
2022/12/06 08:13:50;;;;;;;10.95;7.13;;;19.30;56.10;;;;;;5072388;28;20108;-77
2022/12/06 08:16:16;;;;;;;11.77;7.03;;;19.30;56.30;;;;;;5071190;28;20086;-77
2022/12/06 08:18:42;;;;;;;10.85;6.80;;;19.30;56.50;;;;;;5069285;28;20483;-76
2022/12/06 08:21:08;;;;;;;11.85;6.68;;;19.30;56.20;;;;;;5069346;28;20025;-77
2022/12/06 08:23:35;;;;;;;9.82;6.72;;;19.30;56.40;;;;;;5069696;28;20465;-76
2022/12/06 08:26:04;;;;;;;10.60;6.57;;;19.30;56.50;;;;;;5069742;28;20024;-76
2022/12/06 08:28:31;;;;;;;11.27;7.20;;;19.30;56.50;;;;;;5069441;28;20024;-76
2022/12/06 08:30:57;;;;;;;11.65;7.03;;;19.30;56.60;;;;;;5068969;28;20123;-76
2022/12/06 08:33:23;;;;;;;13.13;7.25;;;19.20;57.20;;;;;;5053043;28;20111;-76
2022/12/06 08:35:50;;;;;;;13.63;6.65;;;19.20;56.60;;;;;;5070843;28;20391;-76
2022/12/06 08:38:16;;;;;;;11.80;6.57;;;19.20;56.60;;;;;;5070882;28;20028;-77
2022/12/06 08:40:43;;;;;;;9.70;6.40;;;19.20;56.60;;;;;;5070076;28;20381;-77
2022/12/06 08:43:09;;;;;;;12.05;6.85;;;19.20;56.50;;;;;;5070952;28;20089;-77
2022/12/06 08:45:35;;;;;;;11.15;6.80;;;19.20;56.40;;;;;;5070409;28;20039;-76
2022/12/06 08:48:01;;;;;;;11.20;6.53;;;19.20;56.60;;;;;;5066853;28;20103;-77
2022/12/06 08:50:52;;;;;;;11.50;6.30;;;19.20;56.40;;;;;;5063514;28;20047;-78
2022/12/06 08:53:19;;;;;;;11.57;7.20;;;19.30;56.20;;;;;;5061566;28;20025;-77
2022/12/06 08:56:00;;;;;;;13.98;6.95;;;19.30;56.20;;;;;;5061156;28;20233;-77
2022/12/06 08:58:47;;;;;;;15.27;7.05;;;19.20;56.60;;;;;;5060536;28;20098;-77
2022/12/06 09:01:22;;;;;;;9.55;6.32;;;19.30;56.60;;;;;;5058361;28;20046;-77
2022/12/06 09:03:48;;;;;;;12.57;6.60;;;19.30;56.80;;;;;;5070742;28;20029;-77
2022/12/06 09:06:13;;;;;;;13.85;6.85;;;19.30;56.20;;;;;;5068486;28;20111;-77
2022/12/06 09:08:39;;;;;;;14.45;7.03;;;19.30;56.80;;;;;;5070826;28;20048;-77
2022/12/06 09:11:06;;;;;;;16.23;6.88;;;19.40;57.00;;;;;;5069100;28;20025;-77
2022/12/06 09:13:36;;;;;;;10.82;6.75;;;19.40;57.50;;;;;;5070903;28;20032;-77
2022/12/06 09:16:10;;;;;;;12.27;6.88;;;19.40;57.50;;;;;;5054229;28;20486;-77
2022/12/06 09:18:36;;;;;;;23.30;7.95;;;19.40;57.70;;;;;;5086750;28;20036;-86
2022/12/06 09:21:07;;;;;;;14.13;6.90;;;19.40;58.10;;;;;;5073491;28;20025;-80
2022/12/06 09:23:34;;;;;;;24.27;7.63;;;19.40;57.80;;;;;;5078787;28;20047;-80
2022/12/06 09:26:00;;;;;;;27.52;6.78;;;19.50;58.20;;;;;;5093347;28;20115;-80
2022/12/06 09:28:29;;;;;;;24.52;9.05;;;19.60;58.10;;;;;;5060504;28;20110;-81
2022/12/06 09:30:56;;;;;;;18.08;8.10;;;19.60;58.50;;;;;;5075365;28;20024;-81
2022/12/06 09:33:25;;;;;;;22.55;8.02;;;19.60;58.30;;;;;;5075465;28;20021;-80
2022/12/06 09:35:52;;;;;;;18.50;7.60;;;19.60;58.70;;;;;;5074586;28;20032;-81
2022/12/06 09:38:21;;;;;;;16.98;7.72;;;19.50;58.20;;;;;;5073921;28;20499;-81
2022/12/06 09:41:07;;;;;;;15.47;7.37;;;19.60;58.20;;;;;;5075077;28;20328;-80
2022/12/06 09:43:51;;;;;;;75.32;50.08;;;19.60;58.80;;;;;;5090157;28;20281;-77
2022/12/06 09:46:20;;;;;;;47.40;29.92;;;19.30;52.30;;;;;;5074116;28;20606;-79
2022/12/06 09:49:21;;;;;;;48.55;31.05;;;18.90;48.30;;;;;;5059196;28;20126;-80
2022/12/06 09:52:19;;;;;;;47.45;27.58;;;18.90;52.50;;;;;;5055117;28;20067;-79
2022/12/06 09:55:03;;;;;;;42.30;25.27;;;19.10;53.40;;;;;;5055256;28;20040;-79
2022/12/06 09:57:45;;;;;;;41.55;24.75;;;19.10;53.40;;;;;;5055126;28;20123;-79
2022/12/06 10:00:14;;;;;;;40.28;25.02;;;19.30;53.50;;;;;;5067677;28;20070;-79
2022/12/06 10:03:12;;;;;;;36.75;23.83;;;19.30;53.50;;;;;;5071901;28;20029;-79
2022/12/06 10:05:54;;;;;;;38.63;24.35;;;19.30;53.80;;;;;;5065253;28;20125;-78
2022/12/06 10:08:42;;;;;;;36.30;23.35;;;19.40;53.70;;;;;;5073646;28;20032;-79
2022/12/06 10:11:32;;;;;;;35.67;23.05;;;19.40;53.80;;;;;;5066715;28;20082;-78
2022/12/06 10:14:23;;;;;;;36.90;23.17;;;19.50;54.10;;;;;;5070149;28;20043;-79
2022/12/06 10:16:58;;;;;;;34.60;22.75;;;19.50;54.00;;;;;;5066523;28;20020;-80
2022/12/06 10:19:46;;;;;;;37.22;22.45;;;19.50;54.10;;;;;;5064229;28;20027;-82
2022/12/06 10:22:18;;;;;;;37.83;22.17;;;19.50;54.30;;;;;;5070614;28;20029;-83
2022/12/06 10:25:14;;;;;;;35.83;22.70;;;19.50;54.30;;;;;;5068272;28;20434;-84
2022/12/06 10:28:03;;;;;;;37.38;23.38;;;19.50;54.50;;;;;;5064400;28;20457;-82
2022/12/06 10:30:29;;;;;;;32.63;21.70;;;19.60;54.50;;;;;;5066618;28;20040;-90
2022/12/06 10:33:08;;;;;;;38.08;25.05;;;19.60;54.40;;;;;;5056066;28;20029;-82
2022/12/06 10:35:54;;;;;;;42.28;26.25;;;19.50;53.20;;;;;;5065963;28;20036;-83
2022/12/06 10:39:03;;;;;;;45.30;28.13;;;19.50;53.20;;;;;;5180488;22;20230;-79
2022/12/06 10:41:58;;;;;;;48.50;30.77;;;19.50;52.80;;;;;;4989679;28;20050;-79
2022/12/06 10:44:38;;;;;;;46.40;30.75;;;19.60;51.90;;;;;;4976391;28;20069;-79
2022/12/06 10:47:11;;;;;;;43.78;29.13;;;19.60;51.90;;;;;;5027487;28;20108;-79
2022/12/06 10:50:01;;;;;;;43.70;29.35;;;19.60;51.80;;;;;;5013136;28;20033;-80
2022/12/06 10:52:46;;;;;;;46.70;28.23;;;19.60;51.90;;;;;;5032272;28;20033;-80
2022/12/06 10:55:27;;;;;;;34.75;22.77;;;19.60;51.90;;;;;;4971559;28;20404;-81
2022/12/06 10:58:12;;;;;;;38.13;23.02;;;19.60;51.60;;;;;;5029901;28;20033;-80
2022/12/06 11:00:51;;;;;;;33.70;21.65;;;19.60;51.20;;;;;;5031008;28;20029;-79
2022/12/06 11:03:28;;;;;;;33.88;21.13;;;19.60;51.10;;;;;;5029501;28;20030;-81
2022/12/06 11:06:06;;;;;;;33.65;22.15;;;19.70;51.10;;;;;;5029186;28;20021;-79
2022/12/06 11:08:38;;;;;;;32.50;21.30;;;19.70;51.20;;;;;;5012851;28;20025;-79
2022/12/06 11:11:10;;;;;;;32.28;20.73;;;19.70;51.50;;;;;;5027798;28;20033;-80
2022/12/06 11:13:42;;;;;;;33.03;20.83;;;19.70;51.60;;;;;;5006734;28;20017;-79
2022/12/06 11:16:16;;;;;;;30.55;20.38;;;19.70;51.70;;;;;;4996403;28;20042;-80
2022/12/06 11:18:43;;;;;;;28.02;19.40;;;19.70;51.90;;;;;;5011528;28;20037;-79
2022/12/06 11:21:31;;;;;;;31.73;20.42;;;19.70;52.00;;;;;;4993228;28;20037;-80
2022/12/06 11:24:20;;;;;;;28.45;18.98;;;19.80;52.20;;;;;;4994392;28;20034;-79
2022/12/06 11:26:54;;;;;;;29.23;19.17;;;19.70;52.20;;;;;;5011083;28;20026;-79
2022/12/06 11:29:21;;;;;;;28.80;19.08;;;19.70;52.40;;;;;;4977510;28;20046;-79
2022/12/06 11:31:50;;;;;;;27.95;18.70;;;19.70;52.40;;;;;;4987707;28;20026;-80
2022/12/06 11:34:25;;;;;;;28.13;18.05;;;19.70;52.50;;;;;;4999469;28;20026;-79
2022/12/06 11:36:53;;;;;;;29.60;18.23;;;19.80;52.70;;;;;;5030927;28;20040;-80
2022/12/06 11:39:20;;;;;;;27.40;18.58;;;19.70;52.80;;;;;;4997980;28;20037;-83
2022/12/06 11:41:49;;;;;;;32.05;17.67;;;19.80;53.00;;;;;;4997260;28;20057;-79
2022/12/06 11:44:20;;;;;;;36.33;19.02;;;19.80;53.60;;;;;;4995064;28;20026;-80
2022/12/06 11:46:55;;;;;;;31.10;17.23;;;19.90;54.20;;;;;;5013689;28;20275;-79
2022/12/06 11:49:39;;;;;;;30.08;18.45;;;19.80;53.50;;;;;;5023326;28;20026;-79
2022/12/06 11:52:17;;;;;;;26.55;17.38;;;19.60;53.70;;;;;;5019312;28;20097;-76
2022/12/06 11:54:52;;;;;;;28.70;17.63;;;19.60;52.30;;;;;;5011898;28;20444;-75
2022/12/06 11:57:25;;;;;;;25.77;16.50;;;19.60;52.10;;;;;;5031022;28;20084;-75
2022/12/06 12:00:17;;;;;;;26.52;16.52;;;19.60;51.40;;;;;;5009773;28;20040;-76
2022/12/06 12:02:45;;;;;;;23.85;16.00;;;19.70;51.30;;;;;;4996263;28;20086;-75
2022/12/06 12:05:37;;;;;;;24.83;15.95;;;19.70;51.60;;;;;;5011476;28;20405;-75
2022/12/06 12:08:16;;;;;;;27.13;15.57;;;19.70;51.90;;;;;;5027561;28;20477;-75
2022/12/06 12:10:43;;;;;;;25.77;15.38;;;19.70;52.10;;;;;;5009858;28;20029;-76
2022/12/06 12:15:55;;;;;;;25.50;14.82;;;19.70;52.10;;;;;;5027066;28;20033;-75
2022/12/06 12:18:27;;;;;;;22.27;14.02;;;19.80;52.00;;;;;;5024421;28;20037;-76
2022/12/06 12:20:55;;;;;;;23.35;14.07;;;19.80;52.00;;;;;;5003536;28;20021;-75
2022/12/06 12:23:30;;;;;;;22.85;14.77;;;19.80;52.10;;;;;;5003107;28;20523;-75
2022/12/06 12:26:11;;;;;;;21.45;14.05;;;19.80;52.20;;;;;;5015571;28;20038;-75
2022/12/06 12:28:39;;;;;;;26.88;14.45;;;19.80;52.70;;;;;;5026904;28;20032;-74
2022/12/06 12:31:25;;;;;;;25.63;14.98;;;19.90;52.80;;;;;;5012635;28;20406;-75
2022/12/06 12:34:18;;;;;;;28.35;15.27;;;19.80;52.60;;;;;;5009823;28;20033;-74
2022/12/06 12:36:53;;;;;;;23.35;14.25;;;19.80;52.60;;;;;;5011397;28;20065;-75
2022/12/06 12:39:28;;;;;;;23.77;14.77;;;19.70;52.70;;;;;;5009302;28;20032;-74
2022/12/06 12:41:54;;;;;;;30.88;14.38;;;19.70;52.50;;;;;;4993442;28;20042;-75
2022/12/06 12:44:32;;;;;;;23.13;14.13;;;19.70;52.60;;;;;;5010610;28;20128;-74
2022/12/06 12:47:19;;;;;;;22.33;14.38;;;19.70;52.60;;;;;;5011750;28;20038;-76
2022/12/06 12:50:00;;;;;;;21.92;13.20;;;19.70;52.70;;;;;;5010070;28;20018;-75
2022/12/06 12:52:36;;;;;;;24.33;14.15;;;19.60;52.70;;;;;;4993797;28;20029;-75
2022/12/06 12:55:24;;;;;;;22.50;13.93;;;19.70;52.80;;;;;;4977641;28;20034;-75
2022/12/06 12:57:53;;;;;;;23.23;14.43;;;19.70;52.80;;;;;;5011418;28;20104;-73
2022/12/06 13:00:27;;;;;;;23.48;14.13;;;19.60;52.80;;;;;;5010992;28;20035;-74
2022/12/06 13:03:02;;;;;;;22.52;13.30;;;19.60;52.90;;;;;;4977472;28;20034;-74
2022/12/06 13:05:31;;;;;;;19.30;13.25;;;19.60;52.90;;;;;;5011994;28;20426;-74
2022/12/06 13:08:18;;;;;;;21.90;13.27;;;19.60;53.00;;;;;;4993362;28;20050;-75
2022/12/06 13:10:47;;;;;;;25.50;13.88;;;19.70;53.00;;;;;;5009467;28;20030;-76
2022/12/06 13:13:20;;;;;;;20.67;12.83;;;19.60;52.90;;;;;;4992990;28;20030;-74
2022/12/06 13:15:52;;;;;;;22.52;13.32;;;19.60;53.50;;;;;;5010999;28;20045;-74
2022/12/06 13:18:42;;;;;;;23.20;13.23;;;19.60;53.00;;;;;;5010893;28;20242;-75
2022/12/06 13:21:31;;;;;;;20.83;13.25;;;19.60;53.00;;;;;;5010707;28;20034;-75